Maxwell Air Force Base
KMXF : now visible

Airfield :











YOU CAN JOIN US ON...

 
LOGIN :

Register | Disclaimer

   EN    FR    IT 

 









Legend :    VFR   Marginal VFR   IFR   Intensive IFR   Very Intensive IFR
Visi :
Ceiling :
>= 8 km
>= 3000ft
5 to 8 km
1000 to 3000 ft
1500m to 5 km
500 to 1000 ft
800 to 1500m
200 to 500 ft
< 800m
< 200 ft
Symbols :   Thunderstorms  Fog  Heavy snow  Heavy precipitations  Wind > 20 kt






- Airport Elevation : 171 ft


KMXF - Maxwell Air Force Base

CURRENT METAR :
  • 080402Z AUTO 00000KT 4SM BR OVC005 10/09 A3002 RMK AO2 DZE02 SLP169

EXPIRED METARs :
  • 080256Z AUTO 00000KT 5SM -RA OVC005 09/09 A3002 RMK AO2 RAB06E07DZB07E20RAB33E42DZB42E47RAB47 SLP169 P0000 60000 T00930087 55005
  • 080233Z AUTO 03004KT 7SM -RA OVC005 09/08 A3003 RMK AO2 RAB06E07DZB07E20RAB33 SLP172
  • 080220Z AUTO 01003KT 8SM OVC006 09/09 A3003 RMK AO2 RAB06E07DZB07E20 SLP172
  • 080206Z AUTO 01003KT 8SM -RA OVC007 09/08 A3003 RMK AO2 RAB06 SLP172
  • 080156Z AUTO 01004KT 10SM OVC007 09/08 A3003 RMK AO2 DZB26E38 SLP172 P0000 T00930082
  • 080138Z AUTO 02003KT 10SM OVC007 09/08 A3003 RMK AO2 DZB26E38 SLP172
  • 080126Z AUTO 04004KT 10SM -DZ OVC007 09/08 A3002 RMK AO2 DZB26 SLP169

TAF TAF KMXF
Valid from the 07 at 20:00 until the 09 at 02:00 UTC


072000Z 0720/0902 VRB06KT 9999 BKN020 OVC035 QNH3006INS
BECMG 0720/0721 VRB06KT 8000 -RA OVC015 QNH3005INS
BECMG 0805/0806 VRB06KT 9000 -RA OVC009 QNH2998INS
BECMG 0811/0812 VRB06KT 4800 -RA OVC005 QNH2999INS
BECMG 0817/0818 VRB06KT 9999 NSW BKN020 QNH3003INS
BECMG 0820/0821 VRB06KT 9999 BKN035 QNH3000INS TX16/0820Z TN10/0802Z LAST NO AMDS AFT 0804 NEXT 0812
KZTL FIR / North America



MET'MAP, your aeronautical weather chart ! - Copyright ORBIFLY December 2007 - Disclaimer

ORBIFLY MET'MAP TEAM :

Programming & Development : Alexandra Zaïnal
Concept & original design : Baudouin d'Aumeries
Assistance for programming : Marc-Olivier Méhu
Technical & hardware support : Manuel Goepfert

Contact : metmap@orbifly.com




SOURCES & CREDITS :

   NOAA       Earth
Advisory